createdAt,value
2017-10-31T00:00:47.817Z,0
2017-10-31T00:01:49.228Z,0
2017-10-31T00:02:50.649Z,0
2017-10-31T00:03:52.050Z,0
2017-10-31T00:04:53.489Z,0
2017-10-31T00:05:54.881Z,0
2017-10-31T00:06:56.318Z,0
2017-10-31T00:07:57.763Z,0
2017-10-31T00:08:59.172Z,0
2017-10-31T00:10:00.615Z,0
2017-10-31T00:11:02.067Z,0
2017-10-31T00:12:03.497Z,0
2017-10-31T00:13:04.930Z,0
2017-10-31T00:14:06.352Z,0
2017-10-31T00:15:07.836Z,0
2017-10-31T00:16:09.302Z,0
2017-10-31T00:17:10.772Z,0
2017-10-31T00:18:12.293Z,0
2017-10-31T00:19:13.788Z,0
2017-10-31T00:20:15.526Z,0
2017-10-31T00:21:17.702Z,0
2017-10-31T00:22:19.178Z,0
2017-10-31T00:23:20.664Z,0
2017-10-31T00:24:22.053Z,0
2017-10-31T00:25:23.461Z,0
2017-10-31T00:26:24.908Z,0
2017-10-31T00:27:26.314Z,0
2017-10-31T00:28:27.816Z,0
2017-10-31T00:29:29.262Z,0
2017-10-31T00:30:30.722Z,0
2017-10-31T00:31:32.153Z,0
2017-10-31T00:32:33.588Z,0
2017-10-31T00:33:35.030Z,0
2017-10-31T00:34:36.457Z,0
2017-10-31T00:35:37.910Z,0
2017-10-31T00:36:39.355Z,0
2017-10-31T00:37:40.769Z,0
2017-10-31T00:38:42.186Z,0
2017-10-31T00:39:43.608Z,0
2017-10-31T00:40:45.049Z,0
2017-10-31T00:41:46.471Z,0
2017-10-31T00:42:47.887Z,0
2017-10-31T00:43:49.351Z,0
2017-10-31T00:44:50.770Z,0
2017-10-31T00:45:52.206Z,0
2017-10-31T00:46:53.627Z,0
2017-10-31T00:47:55.123Z,0
2017-10-31T00:48:56.605Z,0
2017-10-31T00:49:58.099Z,0
2017-10-31T00:50:59.616Z,0
2017-10-31T00:52:01.121Z,0
2017-10-31T00:53:02.614Z,0
2017-10-31T00:54:04.113Z,0
2017-10-31T00:55:05.613Z,0
2017-10-31T00:56:07.114Z,0
2017-10-31T00:57:08.600Z,0
2017-10-31T00:58:10.094Z,0
2017-10-31T00:59:11.598Z,0
2017-10-31T01:00:13.078Z,0
2017-10-31T01:01:14.534Z,0
2017-10-31T01:02:15.968Z,0
2017-10-31T01:03:17.377Z,0
2017-10-31T01:04:18.799Z,0
2017-10-31T01:05:20.203Z,0
2017-10-31T01:06:21.602Z,0
2017-10-31T01:07:23.011Z,0
2017-10-31T01:08:24.420Z,0
2017-10-31T01:09:25.806Z,0
2017-10-31T01:10:27.222Z,0
2017-10-31T01:11:28.959Z,0
2017-10-31T01:12:30.365Z,0
2017-10-31T01:13:31.758Z,0
2017-10-31T01:14:33.174Z,0
2017-10-31T01:15:34.563Z,0
2017-10-31T01:16:35.957Z,0
2017-10-31T01:17:37.357Z,0
2017-10-31T01:18:38.759Z,0
2017-10-31T01:19:40.164Z,0
2017-10-31T01:20:41.560Z,0
2017-10-31T01:21:42.957Z,0
2017-10-31T01:22:44.354Z,0
2017-10-31T01:23:45.749Z,0
2017-10-31T01:24:47.145Z,0
2017-10-31T01:25:48.567Z,0
2017-10-31T01:26:49.954Z,0
2017-10-31T01:27:51.348Z,0
2017-10-31T01:28:52.752Z,0
2017-10-31T01:29:54.159Z,0
2017-10-31T01:30:55.555Z,0
2017-10-31T01:31:56.946Z,0
2017-10-31T01:32:58.342Z,0
2017-10-31T01:33:59.741Z,0
2017-10-31T01:35:01.155Z,0
2017-10-31T01:36:02.558Z,0
2017-10-31T01:37:03.992Z,0
2017-10-31T01:38:05.383Z,0
2017-10-31T01:39:06.782Z,0
2017-10-31T01:40:08.181Z,0
2017-10-31T01:41:09.579Z,0
2017-10-31T01:42:10.977Z,0
2017-10-31T01:43:12.397Z,0
2017-10-31T01:44:13.790Z,0
2017-10-31T01:45:15.194Z,0
2017-10-31T01:46:16.594Z,0
2017-10-31T01:47:17.999Z,0
2017-10-31T01:48:19.392Z,0
2017-10-31T01:49:20.787Z,0
2017-10-31T01:50:22.194Z,0
2017-10-31T01:51:23.598Z,0
2017-10-31T01:52:24.994Z,0
2017-10-31T01:53:26.398Z,0
2017-10-31T01:54:27.792Z,0
2017-10-31T01:55:29.186Z,0
2017-10-31T01:56:30.585Z,0
2017-10-31T01:57:31.992Z,0
2017-10-31T01:58:33.392Z,0
2017-10-31T01:59:34.792Z,0
2017-10-31T02:00:36.188Z,0
2017-10-31T02:01:37.596Z,0
2017-10-31T02:02:39.127Z,0
2017-10-31T02:03:40.519Z,0
2017-10-31T02:04:41.929Z,0
2017-10-31T02:05:43.328Z,0
2017-10-31T02:06:44.721Z,0
2017-10-31T02:07:46.118Z,0
2017-10-31T02:08:47.516Z,0
2017-10-31T02:09:48.900Z,0
2017-10-31T02:10:50.303Z,0
2017-10-31T02:11:51.721Z,0
2017-10-31T02:12:53.129Z,0
2017-10-31T02:13:54.525Z,0
2017-10-31T02:14:55.922Z,0
2017-10-31T02:15:57.327Z,0
2017-10-31T02:16:58.736Z,0
2017-10-31T02:18:00.137Z,0
2017-10-31T02:19:01.543Z,0
2017-10-31T02:20:02.938Z,0
2017-10-31T02:21:04.343Z,0
2017-10-31T02:22:05.754Z,0
2017-10-31T02:23:07.146Z,0
2017-10-31T02:24:08.546Z,0
2017-10-31T02:25:09.958Z,0
2017-10-31T02:26:11.360Z,0
2017-10-31T02:27:12.768Z,0
2017-10-31T02:28:14.168Z,0
2017-10-31T02:29:15.571Z,0
2017-10-31T02:30:16.964Z,0
2017-10-31T02:31:18.359Z,0
2017-10-31T02:32:19.755Z,0
2017-10-31T02:33:21.150Z,0
2017-10-31T02:34:22.557Z,0
2017-10-31T02:35:23.953Z,0
2017-10-31T02:36:25.349Z,0
2017-10-31T02:37:26.763Z,0
2017-10-31T02:38:28.158Z,0
2017-10-31T02:39:29.574Z,0
2017-10-31T02:40:30.968Z,0
2017-10-31T02:41:32.374Z,0
2017-10-31T02:42:33.785Z,0
2017-10-31T02:43:35.178Z,0
2017-10-31T02:44:36.674Z,0
2017-10-31T02:45:38.066Z,0
2017-10-31T02:46:39.472Z,0
2017-10-31T02:47:40.861Z,0
2017-10-31T02:48:42.261Z,0
2017-10-31T02:49:43.662Z,0
2017-10-31T02:50:45.056Z,0
2017-10-31T02:51:46.452Z,0
2017-10-31T02:52:47.848Z,0
2017-10-31T02:53:49.249Z,0
2017-10-31T02:54:50.656Z,0
2017-10-31T02:55:52.063Z,0
2017-10-31T02:56:53.463Z,0
2017-10-31T02:57:54.853Z,0
2017-10-31T02:58:56.247Z,0
2017-10-31T02:59:57.646Z,0
2017-10-31T03:00:59.053Z,0
2017-10-31T03:02:00.454Z,0
2017-10-31T03:03:01.867Z,0
2017-10-31T03:04:03.264Z,0
2017-10-31T03:05:04.669Z,0
2017-10-31T03:06:06.082Z,0
2017-10-31T03:07:07.483Z,0
2017-10-31T03:08:08.898Z,0
2017-10-31T03:09:10.295Z,0
2017-10-31T03:10:12.060Z,0
2017-10-31T03:11:13.444Z,0
2017-10-31T03:12:14.842Z,0
2017-10-31T03:13:16.253Z,0
2017-10-31T03:14:17.654Z,0
2017-10-31T03:15:19.050Z,0
2017-10-31T03:16:20.447Z,0
2017-10-31T03:17:21.843Z,0
2017-10-31T03:18:23.244Z,0
2017-10-31T03:19:24.646Z,0
2017-10-31T03:20:26.040Z,0
2017-10-31T03:21:27.436Z,0
2017-10-31T03:22:28.890Z,0
2017-10-31T03:23:31.140Z,0
2017-10-31T03:24:32.541Z,0
2017-10-31T03:25:33.948Z,0
2017-10-31T03:26:35.345Z,0
2017-10-31T03:27:36.753Z,0
2017-10-31T03:28:38.151Z,0
2017-10-31T03:29:39.542Z,0
2017-10-31T03:30:40.942Z,0
2017-10-31T03:31:42.339Z,0
2017-10-31T03:32:43.731Z,0
2017-10-31T03:33:45.147Z,0
2017-10-31T03:34:46.529Z,0
2017-10-31T03:35:47.928Z,0
2017-10-31T03:36:49.340Z,0
2017-10-31T03:37:50.731Z,0
2017-10-31T03:38:52.135Z,0
2017-10-31T03:39:53.533Z,0
2017-10-31T03:40:54.931Z,0
2017-10-31T03:41:56.341Z,0
2017-10-31T03:42:57.735Z,0
2017-10-31T03:43:59.146Z,0
2017-10-31T03:45:00.539Z,0
2017-10-31T03:46:01.945Z,0
2017-10-31T03:47:03.351Z,0
2017-10-31T03:48:04.751Z,0
2017-10-31T03:49:06.142Z,0
2017-10-31T03:50:07.545Z,0
2017-10-31T03:51:08.943Z,0
2017-10-31T03:52:10.355Z,0
2017-10-31T03:53:11.744Z,0
2017-10-31T03:54:13.158Z,0
2017-10-31T03:55:14.551Z,0
2017-10-31T03:56:15.942Z,0
2017-10-31T03:57:17.341Z,0
2017-10-31T03:58:18.737Z,0
2017-10-31T03:59:20.132Z,0
2017-10-31T04:00:21.755Z,0
2017-10-31T04:01:23.174Z,0
2017-10-31T04:02:24.573Z,0
2017-10-31T04:03:25.965Z,0
2017-10-31T04:04:27.378Z,0
2017-10-31T04:05:28.776Z,0
2017-10-31T04:06:30.180Z,0
2017-10-31T04:07:31.575Z,0
2017-10-31T04:08:32.983Z,0
2017-10-31T04:09:34.378Z,0
2017-10-31T04:10:35.771Z,0
2017-10-31T04:11:37.178Z,0
2017-10-31T04:12:38.581Z,0
2017-10-31T04:13:39.987Z,0
2017-10-31T04:14:41.383Z,0
2017-10-31T04:15:42.786Z,0
2017-10-31T04:16:44.216Z,0
2017-10-31T04:17:45.611Z,0
2017-10-31T04:18:47.017Z,0
2017-10-31T04:19:48.406Z,0
2017-10-31T04:20:49.803Z,0
2017-10-31T04:21:51.203Z,0
2017-10-31T04:22:52.604Z,0
2017-10-31T04:23:54.001Z,0
2017-10-31T04:24:55.397Z,0
2017-10-31T04:25:56.789Z,0
2017-10-31T04:26:58.197Z,0
2017-10-31T04:27:59.595Z,0
2017-10-31T04:29:00.991Z,0
2017-10-31T04:30:02.389Z,0
2017-10-31T04:31:03.780Z,0
2017-10-31T04:32:05.176Z,0
2017-10-31T04:33:06.571Z,0
2017-10-31T04:34:07.961Z,0
2017-10-31T04:35:09.355Z,0
2017-10-31T04:36:10.755Z,0
2017-10-31T04:37:12.153Z,0
2017-10-31T04:38:13.555Z,0
2017-10-31T04:39:14.949Z,0
2017-10-31T04:40:16.339Z,0
2017-10-31T04:41:17.742Z,0
2017-10-31T04:42:19.140Z,0
2017-10-31T04:43:20.542Z,0
2017-10-31T04:44:21.939Z,0
2017-10-31T04:45:23.331Z,0
2017-10-31T04:46:24.728Z,0
2017-10-31T04:47:26.124Z,0
2017-10-31T04:48:27.546Z,0
2017-10-31T04:49:28.941Z,0
2017-10-31T04:50:30.340Z,0
2017-10-31T04:51:31.739Z,0
2017-10-31T04:52:33.135Z,0
2017-10-31T04:53:34.543Z,0
2017-10-31T04:54:35.931Z,0
2017-10-31T04:55:37.325Z,0
2017-10-31T04:56:38.737Z,0
2017-10-31T04:57:40.132Z,0
2017-10-31T04:58:41.533Z,0
2017-10-31T04:59:42.928Z,0
2017-10-31T05:00:44.339Z,0
2017-10-31T05:01:45.729Z,0
2017-10-31T05:02:47.123Z,0
2017-10-31T05:03:48.521Z,0
2017-10-31T05:04:49.916Z,0
2017-10-31T05:05:51.317Z,0
2017-10-31T05:06:52.708Z,0
2017-10-31T05:07:54.123Z,0
2017-10-31T05:08:55.592Z,0
2017-10-31T05:09:56.995Z,0
2017-10-31T05:10:58.386Z,0
2017-10-31T05:11:59.790Z,0
2017-10-31T05:13:01.192Z,0
2017-10-31T05:14:02.587Z,0
2017-10-31T05:15:04.001Z,0
2017-10-31T05:16:05.419Z,0
2017-10-31T05:17:06.811Z,0
2017-10-31T05:18:08.207Z,0
2017-10-31T05:19:09.609Z,0
2017-10-31T05:20:11.015Z,0
2017-10-31T05:21:12.411Z,0
2017-10-31T05:22:13.802Z,0
2017-10-31T05:23:15.199Z,0
2017-10-31T05:24:16.591Z,0
2017-10-31T05:25:17.986Z,0
2017-10-31T05:26:19.388Z,0
2017-10-31T05:27:20.783Z,0
2017-10-31T05:28:22.180Z,0
2017-10-31T05:29:23.572Z,0
2017-10-31T05:30:24.971Z,0
2017-10-31T05:31:26.370Z,0
2017-10-31T05:32:27.768Z,0
2017-10-31T05:33:29.180Z,0
2017-10-31T05:34:30.569Z,0
2017-10-31T05:35:31.964Z,0
2017-10-31T05:36:33.362Z,0
2017-10-31T05:37:34.761Z,0
2017-10-31T05:38:36.160Z,0
2017-10-31T05:39:37.566Z,0
2017-10-31T05:40:38.958Z,0
2017-10-31T05:41:40.349Z,0
2017-10-31T05:42:41.743Z,0
2017-10-31T05:43:43.137Z,0
2017-10-31T05:44:44.535Z,0
2017-10-31T05:45:45.932Z,0
2017-10-31T05:46:47.331Z,0
2017-10-31T05:47:48.731Z,0
2017-10-31T05:48:50.127Z,0
2017-10-31T05:49:51.521Z,0
2017-10-31T05:50:52.913Z,0
2017-10-31T05:51:54.639Z,0
2017-10-31T05:52:56.042Z,0
2017-10-31T05:53:57.472Z,0
2017-10-31T05:54:58.868Z,0
2017-10-31T05:56:00.280Z,0
2017-10-31T05:57:01.690Z,0
2017-10-31T05:58:03.095Z,0
2017-10-31T05:59:04.487Z,0
2017-10-31T06:00:05.888Z,0
2017-10-31T06:01:07.280Z,0
2017-10-31T06:02:08.677Z,0
2017-10-31T06:03:10.081Z,0
2017-10-31T06:04:11.477Z,0
2017-10-31T06:05:12.938Z,4
2017-10-31T06:06:14.313Z,4
2017-10-31T06:07:15.709Z,0
2017-10-31T06:08:17.127Z,0
2017-10-31T06:09:18.552Z,0
2017-10-31T06:10:20.024Z,4
2017-10-31T06:11:21.692Z,4
2017-10-31T06:12:23.094Z,4
2017-10-31T06:13:24.627Z,4
2017-10-31T06:14:26.144Z,4
2017-10-31T06:15:27.592Z,4
2017-10-31T06:16:28.981Z,8
2017-10-31T06:17:30.391Z,4
2017-10-31T06:18:31.780Z,8
2017-10-31T06:19:33.182Z,8
2017-10-31T06:20:34.581Z,8
2017-10-31T06:21:35.975Z,8
2017-10-31T06:22:37.472Z,12
2017-10-31T06:23:39.384Z,8
2017-10-31T06:24:40.786Z,12
2017-10-31T06:25:42.175Z,12
2017-10-31T06:26:43.575Z,12
2017-10-31T06:27:45.121Z,16
2017-10-31T06:28:46.517Z,16
2017-10-31T06:29:47.944Z,12
2017-10-31T06:30:49.387Z,16
2017-10-31T06:31:50.806Z,16
2017-10-31T06:32:52.202Z,16
2017-10-31T06:33:53.608Z,16
2017-10-31T06:34:55.011Z,20
2017-10-31T06:35:56.407Z,24
2017-10-31T06:36:57.808Z,24
2017-10-31T06:37:59.205Z,28
2017-10-31T06:39:00.612Z,32
2017-10-31T06:40:02.025Z,36
2017-10-31T06:41:03.423Z,40
2017-10-31T06:42:04.814Z,40
2017-10-31T06:43:06.212Z,48
2017-10-31T06:44:07.611Z,48
2017-10-31T06:45:09.013Z,48
2017-10-31T06:46:10.413Z,52
2017-10-31T06:47:11.820Z,56
2017-10-31T06:48:13.212Z,64
2017-10-31T06:49:14.609Z,64
2017-10-31T06:50:16.010Z,72
2017-10-31T06:51:17.427Z,72
2017-10-31T06:52:18.823Z,80
2017-10-31T06:53:20.353Z,84
2017-10-31T06:54:21.825Z,84
2017-10-31T06:55:23.245Z,88
2017-10-31T06:56:24.645Z,92
2017-10-31T06:57:26.259Z,92
2017-10-31T06:58:27.542Z,96
2017-10-31T06:59:28.947Z,104
2017-10-31T07:00:30.429Z,108
2017-10-31T07:01:32.152Z,108
2017-10-31T07:02:33.563Z,100
2017-10-31T07:03:34.964Z,96
2017-10-31T07:04:36.375Z,88
2017-10-31T07:05:38.318Z,84
2017-10-31T07:06:39.718Z,76
2017-10-31T07:07:41.145Z,72
2017-10-31T07:08:42.528Z,68
2017-10-31T07:09:44.000Z,72
2017-10-31T07:10:45.407Z,76
2017-10-31T07:11:46.809Z,72
2017-10-31T07:12:48.206Z,72
2017-10-31T07:13:49.629Z,72
2017-10-31T07:14:51.035Z,80
2017-10-31T07:15:52.534Z,84
2017-10-31T07:16:53.931Z,88
2017-10-31T07:17:55.331Z,92
2017-10-31T07:18:56.730Z,92
2017-10-31T07:19:58.134Z,100
2017-10-31T07:20:59.533Z,104
2017-10-31T07:22:00.937Z,112
2017-10-31T07:23:02.340Z,120
2017-10-31T07:24:03.742Z,124
2017-10-31T07:25:05.155Z,132
2017-10-31T07:26:06.555Z,136
2017-10-31T07:27:07.951Z,132
2017-10-31T07:28:09.350Z,128
2017-10-31T07:29:10.752Z,120
2017-10-31T07:30:12.161Z,116
2017-10-31T07:31:13.561Z,116
2017-10-31T07:32:14.983Z,120
2017-10-31T07:33:16.384Z,136
2017-10-31T07:34:17.842Z,152
2017-10-31T07:35:19.239Z,160
2017-10-31T07:36:20.642Z,172
2017-10-31T07:37:22.045Z,180
2017-10-31T07:38:23.491Z,184
2017-10-31T07:39:24.931Z,172
2017-10-31T07:40:26.329Z,152
2017-10-31T07:41:27.749Z,144
2017-10-31T07:42:29.151Z,140
2017-10-31T07:43:30.589Z,148
2017-10-31T07:44:31.991Z,148
2017-10-31T07:45:33.387Z,144
2017-10-31T07:46:34.826Z,164
2017-10-31T07:47:36.266Z,196
2017-10-31T07:48:37.783Z,220
2017-10-31T07:49:39.190Z,232
2017-10-31T07:50:40.640Z,232
2017-10-31T07:51:42.068Z,216
2017-10-31T07:52:43.774Z,196
2017-10-31T07:53:45.231Z,184
2017-10-31T07:54:46.694Z,172
2017-10-31T07:55:48.378Z,148
2017-10-31T07:56:50.034Z,144
2017-10-31T07:57:51.547Z,144
2017-10-31T07:58:53.027Z,140
2017-10-31T07:59:54.732Z,144
2017-10-31T08:00:56.418Z,152
2017-10-31T08:01:57.857Z,164
2017-10-31T08:02:59.509Z,172
2017-10-31T08:04:01.032Z,176
2017-10-31T08:05:02.518Z,180
2017-10-31T08:06:04.050Z,184
2017-10-31T08:07:05.566Z,184
2017-10-31T08:08:07.114Z,184
2017-10-31T08:09:08.732Z,180
2017-10-31T08:10:10.237Z,164
2017-10-31T08:11:11.766Z,148
2017-10-31T08:12:13.253Z,152
2017-10-31T08:13:14.776Z,172
2017-10-31T08:14:16.246Z,212
2017-10-31T08:15:17.680Z,236
2017-10-31T08:16:19.139Z,240
2017-10-31T08:17:20.595Z,236
2017-10-31T08:18:22.040Z,228
2017-10-31T08:19:23.717Z,232
2017-10-31T08:20:25.270Z,252
2017-10-31T08:21:26.807Z,272
2017-10-31T08:22:28.318Z,296
2017-10-31T08:23:29.859Z,328
2017-10-31T08:24:31.350Z,348
2017-10-31T08:25:32.995Z,340
2017-10-31T08:26:34.523Z,336
2017-10-31T08:27:36.020Z,356
2017-10-31T08:28:37.530Z,380
2017-10-31T08:29:38.978Z,392
2017-10-31T08:30:40.509Z,392
2017-10-31T08:31:41.985Z,376
2017-10-31T08:32:43.461Z,364
2017-10-31T08:33:44.950Z,368
2017-10-31T08:34:46.433Z,380
2017-10-31T08:35:47.940Z,396
2017-10-31T08:36:49.451Z,400
2017-10-31T08:37:50.939Z,400
2017-10-31T08:38:52.428Z,388
2017-10-31T08:39:53.900Z,372
2017-10-31T08:40:55.439Z,364
2017-10-31T08:41:56.927Z,356
2017-10-31T08:42:58.415Z,348
2017-10-31T08:44:00.184Z,364
2017-10-31T08:45:01.671Z,384
2017-10-31T08:46:03.163Z,404
2017-10-31T08:47:04.647Z,400
2017-10-31T08:48:06.133Z,404
2017-10-31T08:49:07.627Z,412
2017-10-31T08:50:09.118Z,420
2017-10-31T08:51:10.650Z,432
2017-10-31T08:52:12.127Z,432
2017-10-31T08:53:13.669Z,436
2017-10-31T08:54:15.160Z,440
2017-10-31T08:55:16.689Z,452
2017-10-31T08:56:18.178Z,476
2017-10-31T08:57:19.668Z,496
2017-10-31T08:58:21.134Z,508
2017-10-31T08:59:22.625Z,500
2017-10-31T09:00:24.131Z,488
2017-10-31T09:01:25.674Z,468
2017-10-31T09:02:27.331Z,432
2017-10-31T09:03:28.864Z,408
2017-10-31T09:04:30.377Z,380
2017-10-31T09:05:31.883Z,368
2017-10-31T09:06:33.466Z,364
2017-10-31T09:07:35.000Z,376
2017-10-31T09:08:36.499Z,396
2017-10-31T09:09:38.125Z,424
2017-10-31T09:10:39.738Z,448
2017-10-31T09:11:41.283Z,472
2017-10-31T09:12:42.773Z,500
2017-10-31T09:13:44.364Z,516
2017-10-31T09:14:46.016Z,532
2017-10-31T09:15:47.924Z,548
2017-10-31T09:16:49.853Z,580
2017-10-31T09:17:51.571Z,616
2017-10-31T09:18:53.128Z,644
2017-10-31T09:19:54.850Z,664
2017-10-31T09:20:56.488Z,680
2017-10-31T09:21:58.076Z,708
2017-10-31T09:22:59.681Z,744
2017-10-31T09:24:01.268Z,752
2017-10-31T09:25:03.389Z,760
2017-10-31T09:26:05.061Z,768
2017-10-31T09:27:06.696Z,792
2017-10-31T09:28:08.407Z,796
2017-10-31T09:29:09.947Z,800
2017-10-31T09:30:11.576Z,808
2017-10-31T09:31:13.159Z,804
2017-10-31T09:32:14.813Z,788
2017-10-31T09:33:16.433Z,740
2017-10-31T09:34:18.040Z,708
2017-10-31T09:35:19.639Z,700
2017-10-31T09:36:21.286Z,708
2017-10-31T09:37:22.978Z,704
2017-10-31T09:38:24.624Z,724
2017-10-31T09:39:26.245Z,744
2017-10-31T09:40:27.851Z,748
2017-10-31T09:41:29.455Z,736
2017-10-31T09:42:31.109Z,720
2017-10-31T09:43:32.905Z,716
2017-10-31T09:44:34.542Z,712
2017-10-31T09:45:36.218Z,716
2017-10-31T09:46:37.866Z,696
2017-10-31T09:47:39.551Z,672
2017-10-31T09:48:41.157Z,664
2017-10-31T09:49:42.803Z,680
2017-10-31T09:50:44.493Z,688
2017-10-31T09:51:46.147Z,716
2017-10-31T09:52:47.678Z,748
2017-10-31T09:53:49.321Z,792
2017-10-31T09:54:50.969Z,844
2017-10-31T09:55:52.587Z,884
2017-10-31T09:56:54.262Z,896
2017-10-31T09:57:55.796Z,896
2017-10-31T09:58:57.388Z,908
2017-10-31T09:59:58.962Z,892
2017-10-31T10:01:00.557Z,884
2017-10-31T10:02:02.163Z,880
2017-10-31T10:03:03.785Z,872
2017-10-31T10:04:05.437Z,872
2017-10-31T10:05:07.098Z,876
2017-10-31T10:06:08.756Z,876
2017-10-31T10:07:10.336Z,872
2017-10-31T10:08:11.930Z,864
2017-10-31T10:09:13.603Z,848
2017-10-31T10:10:15.268Z,828
2017-10-31T10:11:16.842Z,800
2017-10-31T10:12:18.402Z,784
2017-10-31T10:13:20.025Z,772
2017-10-31T10:14:21.678Z,752
2017-10-31T10:15:23.269Z,740
2017-10-31T10:16:24.910Z,724
2017-10-31T10:17:26.490Z,716
2017-10-31T10:18:28.114Z,712
2017-10-31T10:19:29.714Z,716
2017-10-31T10:20:31.288Z,724
2017-10-31T10:21:32.868Z,728
2017-10-31T10:22:34.434Z,732
2017-10-31T10:23:35.963Z,728
2017-10-31T10:24:37.467Z,720
2017-10-31T10:25:39.036Z,704
2017-10-31T10:26:40.630Z,664
2017-10-31T10:27:42.222Z,624
2017-10-31T10:28:43.789Z,620
2017-10-31T10:29:45.381Z,636
2017-10-31T10:30:46.932Z,632
2017-10-31T10:31:48.498Z,624
2017-10-31T10:32:50.062Z,636
2017-10-31T10:33:51.629Z,640
2017-10-31T10:34:53.213Z,644
2017-10-31T10:35:54.866Z,656
2017-10-31T10:36:56.483Z,688
2017-10-31T10:37:58.089Z,724
2017-10-31T10:38:59.768Z,780
2017-10-31T10:40:01.386Z,844
2017-10-31T10:41:03.013Z,900
2017-10-31T10:42:04.608Z,956
2017-10-31T10:43:06.188Z,1024
2017-10-31T10:44:07.774Z,1068
2017-10-31T10:45:09.365Z,1096
2017-10-31T10:46:10.948Z,1096
2017-10-31T10:47:12.562Z,1092
2017-10-31T10:48:14.188Z,1080
2017-10-31T10:49:15.794Z,1052
2017-10-31T10:50:17.427Z,1028
2017-10-31T10:51:19.072Z,1036
2017-10-31T10:52:20.715Z,1040
2017-10-31T10:53:22.282Z,1056
2017-10-31T10:54:23.897Z,1064
2017-10-31T10:55:25.528Z,1076
2017-10-31T10:56:27.070Z,1100
2017-10-31T10:57:28.692Z,1112
2017-10-31T10:58:30.299Z,1084
2017-10-31T10:59:31.944Z,1056
2017-10-31T11:00:33.531Z,1028
2017-10-31T11:01:35.222Z,1004
2017-10-31T11:02:36.864Z,984
2017-10-31T11:03:38.434Z,960
2017-10-31T11:04:40.150Z,924
2017-10-31T11:05:41.633Z,884
2017-10-31T11:06:44.042Z,864
2017-10-31T11:07:45.903Z,864
2017-10-31T11:08:47.841Z,876
2017-10-31T11:09:49.724Z,884
2017-10-31T11:10:51.486Z,900
2017-10-31T11:11:53.464Z,932
2017-10-31T11:12:55.447Z,940
2017-10-31T11:13:57.399Z,928
2017-10-31T11:14:59.223Z,920
2017-10-31T11:16:00.800Z,928
2017-10-31T11:17:02.357Z,968
2017-10-31T11:18:03.867Z,1008
2017-10-31T11:19:05.371Z,1016
2017-10-31T11:20:06.856Z,964
2017-10-31T11:21:08.321Z,864
2017-10-31T11:22:10.061Z,800
2017-10-31T11:23:11.789Z,788
2017-10-31T11:24:13.302Z,796
2017-10-31T11:25:15.052Z,824
2017-10-31T11:26:16.584Z,876
2017-10-31T11:27:18.127Z,916
2017-10-31T11:28:19.620Z,920
2017-10-31T11:29:21.143Z,904
2017-10-31T11:30:22.795Z,888
2017-10-31T11:31:24.736Z,880
2017-10-31T11:32:26.498Z,884
2017-10-31T11:33:28.385Z,900
2017-10-31T11:34:30.349Z,920
2017-10-31T11:35:32.296Z,936
2017-10-31T11:36:33.917Z,952
2017-10-31T11:37:35.725Z,936
2017-10-31T11:38:37.614Z,920
2017-10-31T11:39:39.417Z,916
2017-10-31T11:40:42.026Z,912
2017-10-31T11:41:44.091Z,900
2017-10-31T11:42:45.918Z,900
2017-10-31T11:43:47.560Z,932
2017-10-31T11:44:49.616Z,964
2017-10-31T11:45:54.343Z,1000
2017-10-31T11:46:55.956Z,980
2017-10-31T11:47:57.746Z,960
2017-10-31T11:48:59.630Z,924
2017-10-31T11:50:01.401Z,900
2017-10-31T11:51:03.054Z,928
2017-10-31T11:52:04.775Z,924
2017-10-31T11:53:07.629Z,956
2017-10-31T11:54:09.263Z,992
2017-10-31T11:55:10.757Z,1016
2017-10-31T11:56:12.221Z,1056
2017-10-31T11:57:13.806Z,1100
2017-10-31T11:58:15.444Z,1148
2017-10-31T11:59:17.337Z,1180
2017-10-31T12:00:19.248Z,1160
2017-10-31T12:01:20.919Z,1208
2017-10-31T12:02:22.692Z,1240
2017-10-31T12:03:24.731Z,1256
2017-10-31T12:04:26.206Z,1284
2017-10-31T12:05:27.705Z,1340
2017-10-31T12:06:29.167Z,1344
2017-10-31T12:07:30.637Z,1368
2017-10-31T12:08:32.138Z,1364
2017-10-31T12:09:33.634Z,1280
2017-10-31T12:10:35.115Z,1296
2017-10-31T12:11:36.602Z,1352
2017-10-31T12:12:38.070Z,1404
2017-10-31T12:13:39.541Z,1260
2017-10-31T12:14:41.019Z,1156
2017-10-31T12:15:42.484Z,1124
2017-10-31T12:16:43.961Z,1080
2017-10-31T12:17:45.423Z,1060
2017-10-31T12:18:46.891Z,1032
2017-10-31T12:19:48.363Z,1000
2017-10-31T12:20:49.802Z,960
2017-10-31T12:22:30.738Z,916
2017-10-31T12:23:32.135Z,900
2017-10-31T12:24:54.100Z,852
2017-10-31T12:25:55.501Z,872
2017-10-31T12:26:56.899Z,888
2017-10-31T12:27:58.297Z,888
2017-10-31T12:28:59.698Z,884
2017-10-31T12:30:01.103Z,852
2017-10-31T12:31:02.508Z,800
2017-10-31T12:32:03.905Z,732
2017-10-31T12:33:05.304Z,680
2017-10-31T12:34:06.703Z,624
2017-10-31T12:35:08.182Z,580
2017-10-31T12:36:09.584Z,532
2017-10-31T12:37:11.046Z,504
2017-10-31T12:38:12.486Z,492
2017-10-31T12:39:13.884Z,472
2017-10-31T12:40:15.286Z,460
2017-10-31T12:41:16.687Z,448
2017-10-31T12:42:18.091Z,420
2017-10-31T12:43:19.522Z,452
2017-10-31T12:44:20.927Z,464
2017-10-31T12:45:22.345Z,484
2017-10-31T12:46:23.748Z,508
2017-10-31T12:47:25.149Z,548
2017-10-31T12:48:26.602Z,576
2017-10-31T12:49:28.009Z,560
2017-10-31T12:50:29.441Z,532
2017-10-31T12:51:32.807Z,516
2017-10-31T12:53:13.907Z,524
2017-10-31T12:54:15.382Z,508
2017-10-31T12:55:16.788Z,484
2017-10-31T12:56:18.196Z,460
2017-10-31T12:57:19.648Z,452
2017-10-31T12:58:21.081Z,452
2017-10-31T12:59:22.490Z,444
2017-10-31T13:00:23.928Z,436
2017-10-31T13:01:25.380Z,432
2017-10-31T13:02:26.839Z,436
2017-10-31T13:03:29.337Z,452
2017-10-31T13:04:30.866Z,508
2017-10-31T13:05:32.376Z,568
2017-10-31T13:06:33.919Z,588
2017-10-31T13:07:35.525Z,584
2017-10-31T13:08:37.043Z,588
2017-10-31T13:09:38.671Z,596
2017-10-31T13:10:40.363Z,616
2017-10-31T13:11:41.842Z,636
2017-10-31T13:13:22.885Z,648
2017-10-31T13:14:24.287Z,652
2017-10-31T13:15:25.720Z,644
2017-10-31T13:16:27.262Z,636
2017-10-31T13:17:29.015Z,616
2017-10-31T13:18:30.418Z,616
2017-10-31T13:19:31.823Z,660
2017-10-31T13:20:33.239Z,688
2017-10-31T13:21:34.636Z,688
2017-10-31T13:22:36.056Z,652
2017-10-31T13:23:37.453Z,628
2017-10-31T13:24:38.986Z,616
2017-10-31T13:25:40.442Z,620
2017-10-31T13:26:41.833Z,644
2017-10-31T13:27:43.238Z,664
2017-10-31T13:28:44.645Z,648
2017-10-31T13:29:46.047Z,608
2017-10-31T13:30:47.444Z,564
2017-10-31T13:31:48.841Z,536
2017-10-31T13:32:50.243Z,552
2017-10-31T13:33:51.648Z,572
2017-10-31T13:34:53.047Z,544
2017-10-31T13:35:54.716Z,596
2017-10-31T13:36:56.254Z,652
2017-10-31T13:37:57.747Z,656
2017-10-31T13:38:59.199Z,636
2017-10-31T13:40:00.601Z,608
2017-10-31T13:41:02.017Z,580
2017-10-31T13:42:03.448Z,520
2017-10-31T13:43:45.864Z,428
2017-10-31T13:44:47.647Z,408
2017-10-31T13:46:09.379Z,388
2017-10-31T13:47:10.785Z,376
2017-10-31T13:48:12.496Z,356
2017-10-31T13:49:13.856Z,348
2017-10-31T13:50:15.278Z,360
2017-10-31T13:51:16.697Z,372
2017-10-31T13:52:18.186Z,380
2017-10-31T13:53:19.600Z,392
2017-10-31T13:54:21.019Z,420
2017-10-31T13:55:22.441Z,416
2017-10-31T13:56:23.867Z,396
2017-10-31T13:57:25.362Z,368
2017-10-31T13:58:26.902Z,344
2017-10-31T13:59:28.471Z,336
2017-10-31T14:00:29.993Z,328
2017-10-31T14:01:31.485Z,328
2017-10-31T14:02:33.039Z,328
2017-10-31T14:03:34.704Z,336
2017-10-31T14:04:36.243Z,340
2017-10-31T14:05:37.771Z,340
2017-10-31T14:06:39.306Z,336
2017-10-31T14:07:40.815Z,328
2017-10-31T14:08:42.310Z,324
2017-10-31T14:09:43.847Z,332
2017-10-31T14:10:45.418Z,340
2017-10-31T14:11:46.927Z,336
2017-10-31T14:12:48.415Z,304
2017-10-31T14:13:49.868Z,268
2017-10-31T14:14:51.338Z,256
2017-10-31T14:15:52.846Z,280
2017-10-31T14:16:54.341Z,292
2017-10-31T14:17:55.867Z,304
2017-10-31T14:18:57.338Z,308
2017-10-31T14:19:58.872Z,308
2017-10-31T14:21:00.435Z,312
2017-10-31T14:22:01.990Z,328
2017-10-31T14:23:03.548Z,340
2017-10-31T14:24:05.117Z,332
2017-10-31T14:25:06.684Z,312
2017-10-31T14:26:08.202Z,312
2017-10-31T14:27:09.772Z,300
2017-10-31T14:28:11.353Z,284
2017-10-31T14:29:12.928Z,264
2017-10-31T14:30:14.451Z,248
2017-10-31T14:31:16.049Z,232
2017-10-31T14:32:17.591Z,224
2017-10-31T14:33:19.173Z,228
2017-10-31T14:34:20.750Z,236
2017-10-31T14:35:22.352Z,240
2017-10-31T14:36:23.940Z,236